createdAt,value
2022-12-01T00:18:13.972Z,85
2022-12-01T00:58:14.129Z,84.8
2022-12-01T01:18:14.162Z,85.1
2022-12-01T01:38:14.165Z,85.3
2022-12-01T01:58:14.164Z,85
2022-12-01T02:18:14.336Z,85.3
2022-12-01T02:38:14.236Z,85.1
2022-12-01T02:58:14.373Z,84.9
2022-12-01T03:18:14.399Z,85.5
2022-12-01T03:38:14.464Z,85.7
2022-12-01T03:58:14.393Z,85.8
2022-12-01T04:18:14.542Z,85.9
2022-12-01T04:38:14.561Z,86.4
2022-12-01T04:58:14.569Z,88
2022-12-01T05:18:14.715Z,89.6
2022-12-01T05:38:14.745Z,90.7
2022-12-01T05:58:15.083Z,91.1
2022-12-01T06:18:14.769Z,91.3
2022-12-01T06:38:14.835Z,90.9
2022-12-01T06:58:14.967Z,90.5
2022-12-01T07:18:14.913Z,90.3
2022-12-01T07:38:19.168Z,89.6
2022-12-01T07:58:15.102Z,88.7
2022-12-01T08:18:15.204Z,87.7
2022-12-01T08:38:15.444Z,86.3
2022-12-01T09:18:15.225Z,83.6
2022-12-01T09:38:15.282Z,82.8
2022-12-01T09:58:15.398Z,81.6
2022-12-01T10:18:15.378Z,80.9
2022-12-01T10:38:15.435Z,78.4
2022-12-01T10:58:15.430Z,76.4
2022-12-01T11:18:15.547Z,76.1
2022-12-01T11:38:30.229Z,76.7
2022-12-01T11:58:15.734Z,76.8
2022-12-01T12:18:16.181Z,76.5
2022-12-01T12:38:15.720Z,75.9
2022-12-01T12:58:15.685Z,75.2
2022-12-01T13:18:15.720Z,75.4
2022-12-01T13:38:15.841Z,75.6
2022-12-01T13:58:15.857Z,76.6
2022-12-01T14:18:15.945Z,77.2
2022-12-01T14:38:15.922Z,77.4
2022-12-01T14:58:15.968Z,77.8
2022-12-01T15:18:15.961Z,78.9
2022-12-01T15:38:16.171Z,78.9
2022-12-01T15:58:16.147Z,79.4
2022-12-01T16:18:16.148Z,79.8
2022-12-01T17:18:16.485Z,81.4
2022-12-01T17:38:16.480Z,81.8
2022-12-01T17:58:16.469Z,81.8
2022-12-01T18:18:16.457Z,82
2022-12-01T18:38:16.613Z,82.5
2022-12-01T18:58:16.693Z,85.8
2022-12-01T19:18:16.858Z,94.7
2022-12-01T19:38:16.627Z,98.3
2022-12-01T19:58:16.714Z,99.1
2022-12-01T20:18:16.705Z,99.8
2022-12-01T20:38:16.833Z,100
2022-12-01T20:58:16.787Z,100
2022-12-01T21:18:16.823Z,100
2022-12-01T21:38:21.727Z,100
2022-12-01T21:58:16.890Z,100
2022-12-01T22:18:16.984Z,100
2022-12-01T22:38:17.030Z,100
2022-12-01T22:58:17.072Z,100
2022-12-01T23:18:17.162Z,100
2022-12-01T23:38:17.141Z,100
2022-12-01T23:58:18.618Z,100
